sensor_id;sensor_type;location;lat;lon;timestamp;pressure;altitude;pressure_sealevel;temperature;humidity
22047;BME280;11187;49.412;20.956;2023-10-31T00:01:32;94222.22;;;12.57;100.00
22047;BME280;11187;49.412;20.956;2023-10-31T00:04:06;94216.19;;;12.58;100.00
22047;BME280;11187;49.412;20.956;2023-10-31T00:06:59;94224.81;;;12.57;100.00
22047;BME280;11187;49.412;20.956;2023-10-31T00:09:53;94224.84;;;12.55;100.00
22047;BME280;11187;49.412;20.956;2023-10-31T00:12:27;94203.47;;;12.54;100.00
22047;BME280;11187;49.412;20.956;2023-10-31T00:15:21;94189.88;;;12.52;100.00
22047;BME280;11187;49.412;20.956;2023-10-31T00:18:16;94191.66;;;12.50;100.00
22047;BME280;11187;49.412;20.956;2023-10-31T00:20:50;94180.69;;;12.47;100.00
22047;BME280;11187;49.412;20.956;2023-10-31T00:23:47;94177.41;;;12.43;100.00
22047;BME280;11187;49.412;20.956;2023-10-31T00:26:21;94156.16;;;12.40;100.00
22047;BME280;11187;49.412;20.956;2023-10-31T00:29:14;94147.81;;;12.35;100.00
22047;BME280;11187;49.412;20.956;2023-10-31T00:31:48;94155.66;;;12.31;100.00
22047;BME280;11187;49.412;20.956;2023-10-31T00:34:44;94170.28;;;12.29;100.00
22047;BME280;11187;49.412;20.956;2023-10-31T00:37:24;94171.22;;;12.27;100.00
22047;BME280;11187;49.412;20.956;2023-10-31T00:40:06;94165.38;;;12.23;100.00
22047;BME280;11187;49.412;20.956;2023-10-31T00:42:46;94167.16;;;12.21;100.00
22047;BME280;11187;49.412;20.956;2023-10-31T00:45:26;94156.91;;;12.21;100.00
22047;BME280;11187;49.412;20.956;2023-10-31T00:48:06;94162.22;;;12.17;100.00
22047;BME280;11187;49.412;20.956;2023-10-31T00:50:40;94158.19;;;12.11;100.00
22047;BME280;11187;49.412;20.956;2023-10-31T00:53:26;94153.09;;;12.09;100.00
22047;BME280;11187;49.412;20.956;2023-10-31T00:56:00;94161.81;;;12.05;100.00
22047;BME280;11187;49.412;20.956;2023-10-31T00:58:46;94158.53;;;12.02;100.00
22047;BME280;11187;49.412;20.956;2023-10-31T01:01:20;94165.38;;;12.01;100.00
22047;BME280;11187;49.412;20.956;2023-10-31T01:04:06;94153.34;;;12.03;100.00
22047;BME280;11187;49.412;20.956;2023-10-31T01:06:41;94141.47;;;12.01;100.00
22047;BME280;11187;49.412;20.956;2023-10-31T01:09:28;94125.38;;;11.97;100.00
22047;BME280;11187;49.412;20.956;2023-10-31T01:12:02;94111.78;;;11.95;100.00
22047;BME280;11187;49.412;20.956;2023-10-31T01:14:57;94115.34;;;11.91;100.00
22047;BME280;11187;49.412;20.956;2023-10-31T01:17:30;94108.56;;;11.90;100.00
22047;BME280;11187;49.412;20.956;2023-10-31T01:20:23;94109.31;;;11.92;100.00
22047;BME280;11187;49.412;20.956;2023-10-31T01:22:57;94107.34;;;11.99;100.00
22047;BME280;11187;49.412;20.956;2023-10-31T01:25:50;94105.25;;;12.08;100.00
22047;BME280;11187;49.412;20.956;2023-10-31T01:28:24;94106.59;;;12.17;100.00
22047;BME280;11187;49.412;20.956;2023-10-31T01:31:10;94102.00;;;12.25;100.00
22047;BME280;11187;49.412;20.956;2023-10-31T01:33:51;94106.81;;;12.33;100.00
22047;BME280;11187;49.412;20.956;2023-10-31T01:36:37;94088.59;;;12.39;100.00
22047;BME280;11187;49.412;20.956;2023-10-31T01:39:11;94081.53;;;12.44;100.00
22047;BME280;11187;49.412;20.956;2023-10-31T01:41:57;94083.97;;;12.47;100.00
22047;BME280;11187;49.412;20.956;2023-10-31T01:44:31;94080.44;;;12.50;100.00
22047;BME280;11187;49.412;20.956;2023-10-31T01:47:24;94070.03;;;12.53;100.00
22047;BME280;11187;49.412;20.956;2023-10-31T01:50:19;94073.38;;;12.55;100.00
22047;BME280;11187;49.412;20.956;2023-10-31T01:52:53;94071.63;;;12.56;100.00
22047;BME280;11187;49.412;20.956;2023-10-31T01:55:39;94068.25;;;12.55;100.00
22047;BME280;11187;49.412;20.956;2023-10-31T01:58:14;94048.63;;;12.54;100.00
22047;BME280;11187;49.412;20.956;2023-10-31T02:01:01;94044.44;;;12.51;100.00
22047;BME280;11187;49.412;20.956;2023-10-31T02:03:34;94044.50;;;12.50;100.00
22047;BME280;11187;49.412;20.956;2023-10-31T02:06:28;94042.91;;;12.47;100.00
22047;BME280;11187;49.412;20.956;2023-10-31T02:09:21;94034.38;;;12.47;100.00
22047;BME280;11187;49.412;20.956;2023-10-31T02:12:35;94036.94;;;12.47;100.00
22047;BME280;11187;49.412;20.956;2023-10-31T02:15:09;94031.03;;;12.45;100.00
22047;BME280;11187;49.412;20.956;2023-10-31T02:18:02;94044.06;;;12.40;100.00
22047;BME280;11187;49.412;20.956;2023-10-31T02:20:56;94048.53;;;12.35;100.00
22047;BME280;11187;49.412;20.956;2023-10-31T02:23:30;94043.56;;;12.32;100.00
22047;BME280;11187;49.412;20.956;2023-10-31T02:26:23;94045.34;;;12.30;100.00
22047;BME280;11187;49.412;20.956;2023-10-31T02:28:57;94045.47;;;12.27;100.00
22047;BME280;11187;49.412;20.956;2023-10-31T02:31:51;94042.16;;;12.25;100.00
22047;BME280;11187;49.412;20.956;2023-10-31T02:34:45;94043.94;;;12.23;100.00
22047;BME280;11187;49.412;20.956;2023-10-31T02:37:25;94058.44;;;12.24;100.00
22047;BME280;11187;49.412;20.956;2023-10-31T02:40:06;94075.38;;;12.28;100.00
22047;BME280;11187;49.412;20.956;2023-10-31T02:42:47;94079.53;;;12.30;100.00
22047;BME280;11187;49.412;20.956;2023-10-31T02:45:26;94069.22;;;12.32;100.00
22047;BME280;11187;49.412;20.956;2023-10-31T02:48:07;94063.16;;;12.33;100.00
22047;BME280;11187;49.412;20.956;2023-10-31T02:50:53;94052.91;;;12.33;100.00
22047;BME280;11187;49.412;20.956;2023-10-31T02:53:34;94056.34;;;12.33;100.00
22047;BME280;11187;49.412;20.956;2023-10-31T02:56:14;94040.97;;;12.32;100.00
22047;BME280;11187;49.412;20.956;2023-10-31T02:58:54;94040.97;;;12.32;100.00
22047;BME280;11187;49.412;20.956;2023-10-31T03:01:35;94017.06;;;12.31;100.00
22047;BME280;11187;49.412;20.956;2023-10-31T03:04:16;94022.09;;;12.33;100.00
22047;BME280;11187;49.412;20.956;2023-10-31T03:07:03;94006.78;;;12.31;100.00
22047;BME280;11187;49.412;20.956;2023-10-31T03:09:56;93986.25;;;12.31;100.00
22047;BME280;11187;49.412;20.956;2023-10-31T03:12:50;93992.38;;;12.29;100.00
22047;BME280;11187;49.412;20.956;2023-10-31T03:15:46;93976.06;;;12.30;100.00
22047;BME280;11187;49.412;20.956;2023-10-31T03:18:20;93979.53;;;12.29;100.00
22047;BME280;11187;49.412;20.956;2023-10-31T03:21:06;93965.84;;;12.28;100.00
22047;BME280;11187;49.412;20.956;2023-10-31T03:23:41;93964.19;;;12.27;100.00
22047;BME280;11187;49.412;20.956;2023-10-31T03:26:35;93956.56;;;12.26;100.00
22047;BME280;11187;49.412;20.956;2023-10-31T03:29:29;93962.66;;;12.23;100.00
22047;BME280;11187;49.412;20.956;2023-10-31T03:32:23;93967.00;;;12.21;100.00
22047;BME280;11187;49.412;20.956;2023-10-31T03:35:17;93973.94;;;12.19;100.00
22047;BME280;11187;49.412;20.956;2023-10-31T03:38:11;93983.38;;;12.19;100.00
22047;BME280;11187;49.412;20.956;2023-10-31T03:41:05;93980.03;;;12.17;100.00
22047;BME280;11187;49.412;20.956;2023-10-31T03:43:39;93962.09;;;12.17;100.00
22047;BME280;11187;49.412;20.956;2023-10-31T03:46:33;93945.03;;;12.16;100.00
22047;BME280;11187;49.412;20.956;2023-10-31T03:49:07;93947.66;;;12.14;100.00
22047;BME280;11187;49.412;20.956;2023-10-31T03:51:54;93951.97;;;12.14;100.00
22047;BME280;11187;49.412;20.956;2023-10-31T03:54:28;93950.28;;;12.12;100.00
22047;BME280;11187;49.412;20.956;2023-10-31T03:57:14;93940.88;;;12.13;100.00
22047;BME280;11187;49.412;20.956;2023-10-31T03:59:48;93925.38;;;12.15;100.00
22047;BME280;11187;49.412;20.956;2023-10-31T04:02:34;93916.88;;;12.14;100.00
22047;BME280;11187;49.412;20.956;2023-10-31T04:05:08;93927.19;;;12.12;100.00
22047;BME280;11187;49.412;20.956;2023-10-31T04:07:54;93932.41;;;12.11;100.00
22047;BME280;11187;49.412;20.956;2023-10-31T04:10:28;93914.50;;;12.09;100.00
22047;BME280;11187;49.412;20.956;2023-10-31T04:13:14;93910.09;;;12.13;100.00
22047;BME280;11187;49.412;20.956;2023-10-31T04:15:48;93893.63;;;12.17;99.98
22047;BME280;11187;49.412;20.956;2023-10-31T04:18:35;93888.38;;;12.20;99.21
22047;BME280;11187;49.412;20.956;2023-10-31T04:21:09;93880.53;;;12.23;99.66
22047;BME280;11187;49.412;20.956;2023-10-31T04:23:55;93866.75;;;12.26;99.21
22047;BME280;11187;49.412;20.956;2023-10-31T04:26:29;93864.13;;;12.27;99.77
22047;BME280;11187;49.412;20.956;2023-10-31T04:29:15;93848.72;;;12.27;100.00
22047;BME280;11187;49.412;20.956;2023-10-31T04:31:49;93841.84;;;12.28;99.91
22047;BME280;11187;49.412;20.956;2023-10-31T04:34:35;93826.53;;;12.26;99.99
22047;BME280;11187;49.412;20.956;2023-10-31T04:37:16;93834.34;;;12.23;100.00
22047;BME280;11187;49.412;20.956;2023-10-31T04:39:55;93830.13;;;12.22;100.00
22047;BME280;11187;49.412;20.956;2023-10-31T04:42:38;93847.28;;;12.22;100.00
22047;BME280;11187;49.412;20.956;2023-10-31T04:45:17;93832.75;;;12.21;100.00
22047;BME280;11187;49.412;20.956;2023-10-31T04:47:58;93831.13;;;12.20;100.00
22047;BME280;11187;49.412;20.956;2023-10-31T04:50:37;93832.06;;;12.17;100.00
22047;BME280;11187;49.412;20.956;2023-10-31T04:53:19;93823.69;;;12.14;100.00
22047;BME280;11187;49.412;20.956;2023-10-31T04:55:58;93815.28;;;12.10;100.00
22047;BME280;11187;49.412;20.956;2023-10-31T04:58:39;93823.19;;;12.05;100.00
22047;BME280;11187;49.412;20.956;2023-10-31T05:01:18;93840.53;;;12.00;100.00
22047;BME280;11187;49.412;20.956;2023-10-31T05:03:59;93844.94;;;11.97;100.00
22047;BME280;11187;49.412;20.956;2023-10-31T05:06:45;93852.78;;;11.94;100.00
22047;BME280;11187;49.412;20.956;2023-10-31T05:09:41;93840.94;;;11.91;100.00
22047;BME280;11187;49.412;20.956;2023-10-31T05:12:35;93836.78;;;11.87;100.00
22047;BME280;11187;49.412;20.956;2023-10-31T05:15:09;93832.63;;;11.84;100.00
22047;BME280;11187;49.412;20.956;2023-10-31T05:17:56;93821.66;;;11.81;100.00
22047;BME280;11187;49.412;20.956;2023-10-31T05:20:30;93826.31;;;11.73;100.00
22047;BME280;11187;49.412;20.956;2023-10-31T05:23:16;93825.28;;;11.77;97.97
22047;BME280;11187;49.412;20.956;2023-10-31T05:25:50;93803.16;;;11.95;98.52
22047;BME280;11187;49.412;20.956;2023-10-31T05:28:36;93816.81;;;12.14;91.01
22047;BME280;11187;49.412;20.956;2023-10-31T05:31:10;93817.28;;;12.41;90.35
22047;BME280;11187;49.412;20.956;2023-10-31T05:33:56;93824.13;;;12.60;88.42
22047;BME280;11187;49.412;20.956;2023-10-31T05:36:30;93833.41;;;12.81;87.38
22047;BME280;11187;49.412;20.956;2023-10-31T05:39:16;93839.63;;;12.94;85.21
22047;BME280;11187;49.412;20.956;2023-10-31T05:41:50;93844.22;;;13.05;85.78
22047;BME280;11187;49.412;20.956;2023-10-31T05:44:44;93868.88;;;13.09;85.63
22047;BME280;11187;49.412;20.956;2023-10-31T05:47:37;93868.56;;;13.15;84.12
22047;BME280;11187;49.412;20.956;2023-10-31T05:50:11;93881.88;;;13.24;84.43
22047;BME280;11187;49.412;20.956;2023-10-31T05:52:57;93884.25;;;13.28;83.87
22047;BME280;11187;49.412;20.956;2023-10-31T05:55:31;93880.72;;;13.31;85.54
22047;BME280;11187;49.412;20.956;2023-10-31T05:58:24;93896.97;;;13.31;84.15
22047;BME280;11187;49.412;20.956;2023-10-31T06:00:58;93907.09;;;13.34;84.72
22047;BME280;11187;49.412;20.956;2023-10-31T06:03:51;93899.25;;;13.38;83.69
22047;BME280;11187;49.412;20.956;2023-10-31T06:06:25;93888.09;;;13.37;84.58
22047;BME280;11187;49.412;20.956;2023-10-31T06:09:18;93889.84;;;13.36;85.38
22047;BME280;11187;49.412;20.956;2023-10-31T06:11:52;93890.69;;;13.37;84.57
22047;BME280;11187;49.412;20.956;2023-10-31T06:14:38;93882.16;;;13.36;84.34
22047;BME280;11187;49.412;20.956;2023-10-31T06:17:12;93881.25;;;13.38;84.49
22047;BME280;11187;49.412;20.956;2023-10-31T06:19:58;93888.88;;;13.39;83.06
22047;BME280;11187;49.412;20.956;2023-10-31T06:22:32;93880.81;;;13.47;83.13
22047;BME280;11187;49.412;20.956;2023-10-31T06:25:18;93888.34;;;13.50;82.78
22047;BME280;11187;49.412;20.956;2023-10-31T06:27:58;93884.78;;;13.52;83.04
22047;BME280;11187;49.412;20.956;2023-10-31T06:30:39;93878.00;;;13.51;83.93
22047;BME280;11187;49.412;20.956;2023-10-31T06:33:18;93873.75;;;13.50;82.78
22047;BME280;11187;49.412;20.956;2023-10-31T06:35:52;93890.75;;;13.53;82.60
22047;BME280;11187;49.412;20.956;2023-10-31T06:38:45;93903.50;;;13.56;82.50
22047;BME280;11187;49.412;20.956;2023-10-31T06:41:26;93905.97;;;13.57;82.70
22047;BME280;11187;49.412;20.956;2023-10-31T06:44:05;93886.31;;;13.56;82.67
22047;BME280;11187;49.412;20.956;2023-10-31T06:46:46;93874.44;;;13.54;83.35
22047;BME280;11187;49.412;20.956;2023-10-31T06:49:32;93881.41;;;13.52;83.28
22047;BME280;11187;49.412;20.956;2023-10-31T06:52:13;93891.75;;;13.50;83.59
22047;BME280;11187;49.412;20.956;2023-10-31T06:54:52;93890.00;;;13.51;83.76
22047;BME280;11187;49.412;20.956;2023-10-31T06:57:33;93886.53;;;13.52;84.08
22047;BME280;11187;49.412;20.956;2023-10-31T07:00:20;93887.53;;;13.49;83.75
22047;BME280;11187;49.412;20.956;2023-10-31T07:02:54;93879.72;;;13.51;83.71
22047;BME280;11187;49.412;20.956;2023-10-31T07:05:45;93871.13;;;13.52;84.03
22047;BME280;11187;49.412;20.956;2023-10-31T07:08:39;93868.44;;;13.53;83.48
22047;BME280;11187;49.412;20.956;2023-10-31T07:11:13;93876.03;;;13.56;84.02
22047;BME280;11187;49.412;20.956;2023-10-31T07:14:06;93876.78;;;13.58;84.11
22047;BME280;11187;49.412;20.956;2023-10-31T07:16:40;93879.25;;;13.60;84.19
22047;BME280;11187;49.412;20.956;2023-10-31T07:19:26;93886.75;;;13.65;84.38
22047;BME280;11187;49.412;20.956;2023-10-31T07:22:00;93890.06;;;13.67;84.16
22047;BME280;11187;49.412;20.956;2023-10-31T07:24:46;93889.94;;;13.70;84.74
22047;BME280;11187;49.412;20.956;2023-10-31T07:27:20;93910.34;;;13.73;84.02
22047;BME280;11187;49.412;20.956;2023-10-31T07:30:14;93905.97;;;13.75;84.75
22047;BME280;11187;49.412;20.956;2023-10-31T07:33:07;93893.94;;;13.75;83.87
22047;BME280;11187;49.412;20.956;2023-10-31T07:36:02;93872.47;;;13.76;84.33
22047;BME280;11187;49.412;20.956;2023-10-31T07:38:35;93890.31;;;13.79;84.00
22047;BME280;11187;49.412;20.956;2023-10-31T07:41:21;93890.22;;;13.81;83.40
22047;BME280;11187;49.412;20.956;2023-10-31T07:43:55;93884.91;;;13.84;82.94
22047;BME280;11187;49.412;20.956;2023-10-31T07:46:41;93894.91;;;13.90;82.29
22047;BME280;11187;49.412;20.956;2023-10-31T07:49:15;93889.44;;;13.96;82.58
22047;BME280;11187;49.412;20.956;2023-10-31T07:52:01;93872.16;;;13.98;82.07
22047;BME280;11187;49.412;20.956;2023-10-31T07:54:39;93884.91;;;14.02;82.02
22047;BME280;11187;49.412;20.956;2023-10-31T07:57:32;93885.56;;;14.05;82.25
22047;BME280;11187;49.412;20.956;2023-10-31T08:00:10;93881.09;;;14.09;82.74
22047;BME280;11187;49.412;20.956;2023-10-31T08:03:04;93865.66;;;14.09;81.87
22047;BME280;11187;49.412;20.956;2023-10-31T08:05:37;93872.38;;;14.11;82.72
22047;BME280;11187;49.412;20.956;2023-10-31T08:08:23;93870.63;;;14.12;82.62
22047;BME280;11187;49.412;20.956;2023-10-31T08:10:57;93875.72;;;14.13;82.95
22047;BME280;11187;49.412;20.956;2023-10-31T08:13:44;93880.69;;;14.16;82.57
22047;BME280;11187;49.412;20.956;2023-10-31T08:16:18;93896.00;;;14.19;82.79
22047;BME280;11187;49.412;20.956;2023-10-31T08:19:13;93887.34;;;14.20;83.13
22047;BME280;11187;49.412;20.956;2023-10-31T08:22:06;93880.31;;;14.24;84.04
22047;BME280;11187;49.412;20.956;2023-10-31T08:25:01;93869.16;;;14.24;83.80
22047;BME280;11187;49.412;20.956;2023-10-31T08:27:54;93809.69;;;14.28;83.54
22047;BME280;11187;49.412;20.956;2023-10-31T08:30:49;93812.78;;;14.35;83.47
22047;BME280;11187;49.412;20.956;2023-10-31T08:33:22;93821.00;;;14.41;83.53
22047;BME280;11187;49.412;20.956;2023-10-31T08:36:17;93781.47;;;14.43;81.98
22047;BME280;11187;49.412;20.956;2023-10-31T08:38:50;93778.81;;;14.44;82.92
22047;BME280;11187;49.412;20.956;2023-10-31T08:41:36;93790.72;;;14.47;83.16
22047;BME280;11187;49.412;20.956;2023-10-31T08:44:12;93810.31;;;14.49;83.40
22047;BME280;11187;49.412;20.956;2023-10-31T08:46:59;93837.22;;;14.59;83.39
22047;BME280;11187;49.412;20.956;2023-10-31T08:49:32;93851.19;;;14.71;83.26
22047;BME280;11187;49.412;20.956;2023-10-31T08:52:26;93857.84;;;14.75;83.18
22047;BME280;11187;49.412;20.956;2023-10-31T08:55:20;93840.63;;;14.76;83.76
22047;BME280;11187;49.412;20.956;2023-10-31T08:58:14;93836.41;;;14.75;84.52
22047;BME280;11187;49.412;20.956;2023-10-31T09:00:47;93848.59;;;14.71;84.88
22047;BME280;11187;49.412;20.956;2023-10-31T09:03:34;93845.38;;;14.68;84.93
22047;BME280;11187;49.412;20.956;2023-10-31T09:06:07;93832.66;;;14.65;85.10
22047;BME280;11187;49.412;20.956;2023-10-31T09:08:54;93828.44;;;14.64;85.33
22047;BME280;11187;49.412;20.956;2023-10-31T09:11:27;93839.56;;;14.64;85.73
22047;BME280;11187;49.412;20.956;2023-10-31T09:14:21;93846.63;;;14.60;86.68
22047;BME280;11187;49.412;20.956;2023-10-31T09:17:15;93857.94;;;14.58;87.17
22047;BME280;11187;49.412;20.956;2023-10-31T09:19:48;93851.13;;;14.57;87.10
22047;BME280;11187;49.412;20.956;2023-10-31T09:22:35;93858.13;;;14.53;87.52
22047;BME280;11187;49.412;20.956;2023-10-31T09:25:08;93847.94;;;14.52;87.68
22047;BME280;11187;49.412;20.956;2023-10-31T09:27:55;93852.16;;;14.53;88.23
22047;BME280;11187;49.412;20.956;2023-10-31T09:30:28;93852.97;;;14.53;88.23
22047;BME280;11187;49.412;20.956;2023-10-31T09:33:15;93852.13;;;14.54;88.65
22047;BME280;11187;49.412;20.956;2023-10-31T09:35:48;93853.75;;;14.55;88.77
22047;BME280;11187;49.412;20.956;2023-10-31T09:38:35;93851.19;;;14.55;89.01
22047;BME280;11187;49.412;20.956;2023-10-31T09:41:15;93860.53;;;14.58;88.97
22047;BME280;11187;49.412;20.956;2023-10-31T09:43:55;93849.28;;;14.59;89.06
22047;BME280;11187;49.412;20.956;2023-10-31T09:46:35;93851.69;;;14.62;89.31
22047;BME280;11187;49.412;20.956;2023-10-31T09:49:22;93849.78;;;14.66;89.73
22047;BME280;11187;49.412;20.956;2023-10-31T09:51:56;93841.13;;;14.67;89.24
22047;BME280;11187;49.412;20.956;2023-10-31T09:54:52;93828.84;;;14.72;89.52
22047;BME280;11187;49.412;20.956;2023-10-31T09:57:47;93832.06;;;14.75;89.32
22047;BME280;11187;49.412;20.956;2023-10-31T10:00:20;93822.44;;;14.79;88.91
22047;BME280;11187;49.412;20.956;2023-10-31T10:03:14;93818.84;;;14.81;89.37
22047;BME280;11187;49.412;20.956;2023-10-31T10:05:48;93826.50;;;14.83;88.96
22047;BME280;11187;49.412;20.956;2023-10-31T10:08:43;93822.25;;;14.82;88.62
22047;BME280;11187;49.412;20.956;2023-10-31T10:11:37;93822.44;;;14.79;88.30
22047;BME280;11187;49.412;20.956;2023-10-31T10:14:32;93817.38;;;14.77;88.55
22047;BME280;11187;49.412;20.956;2023-10-31T10:17:26;93795.25;;;14.73;88.68
22047;BME280;11187;49.412;20.956;2023-10-31T10:20:20;93795.44;;;14.70;88.74
22047;BME280;11187;49.412;20.956;2023-10-31T10:23:16;93793.13;;;14.66;88.60
22047;BME280;11187;49.412;20.956;2023-10-31T10:25:50;93797.59;;;14.62;89.03
22047;BME280;11187;49.412;20.956;2023-10-31T10:28:38;93807.06;;;14.61;88.80
22047;BME280;11187;49.412;20.956;2023-10-31T10:31:14;93810.41;;;14.64;88.88
22047;BME280;11187;49.412;20.956;2023-10-31T10:34:01;93823.84;;;14.69;88.71
22047;BME280;11187;49.412;20.956;2023-10-31T10:36:37;93810.72;;;14.73;89.04
22047;BME280;11187;49.412;20.956;2023-10-31T10:39:32;93815.47;;;14.81;88.23
22047;BME280;11187;49.412;20.956;2023-10-31T10:42:09;93813.28;;;14.89;87.69
22047;BME280;11187;49.412;20.956;2023-10-31T10:45:04;93800.88;;;14.96;87.25
22047;BME280;11187;49.412;20.956;2023-10-31T10:48:04;93807.53;;;15.00;86.51
22047;BME280;11187;49.412;20.956;2023-10-31T10:50:41;93802.94;;;15.05;86.57
22047;BME280;11187;49.412;20.956;2023-10-31T10:53:48;93800.19;;;15.08;86.02
22047;BME280;11187;49.412;20.956;2023-10-31T10:56:46;93795.84;;;15.09;86.11
22047;BME280;11187;49.412;20.956;2023-10-31T10:59:48;93794.78;;;15.13;86.22
22047;BME280;11187;49.412;20.956;2023-10-31T11:02:43;93777.47;;;15.15;86.08
22047;BME280;11187;49.412;20.956;2023-10-31T11:05:39;93783.34;;;15.17;86.31
22047;BME280;11187;49.412;20.956;2023-10-31T11:08:35;93783.06;;;15.21;86.15
22047;BME280;11187;49.412;20.956;2023-10-31T11:11:29;93794.13;;;15.23;86.04
22047;BME280;11187;49.412;20.956;2023-10-31T11:14:23;93795.16;;;15.21;85.90
22047;BME280;11187;49.412;20.956;2023-10-31T11:17:02;93805.56;;;15.19;86.37
22047;BME280;11187;49.412;20.956;2023-10-31T11:19:52;93809.97;;;15.17;85.71
22047;BME280;11187;49.412;20.956;2023-10-31T11:22:41;93810.88;;;15.16;85.99
22047;BME280;11187;49.412;20.956;2023-10-31T11:25:42;93802.31;;;15.16;86.43
22047;BME280;11187;49.412;20.956;2023-10-31T11:28:37;93803.97;;;15.17;86.28
22047;BME280;11187;49.412;20.956;2023-10-31T11:31:32;93801.38;;;15.17;86.72
22047;BME280;11187;49.412;20.956;2023-10-31T11:34:06;93803.97;;;15.17;86.40
22047;BME280;11187;49.412;20.956;2023-10-31T11:37:38;93792.84;;;15.16;85.41
22047;BME280;11187;49.412;20.956;2023-10-31T11:43:04;93796.97;;;15.19;85.44
22047;BME280;11187;49.412;20.956;2023-10-31T11:45:42;93783.06;;;15.21;85.49
22047;BME280;11187;49.412;20.956;2023-10-31T11:48:50;93788.16;;;15.23;84.99
22047;BME280;11187;49.412;20.956;2023-10-31T11:51:24;93773.34;;;15.27;85.56
22047;BME280;11187;49.412;20.956;2023-10-31T11:54:18;93778.31;;;15.30;84.99
22047;BME280;11187;49.412;20.956;2023-10-31T11:56:51;93774.72;;;15.32;84.67
22047;BME280;11187;49.412;20.956;2023-10-31T11:59:38;93776.28;;;15.35;83.91
22047;BME280;11187;49.412;20.956;2023-10-31T12:02:15;93765.81;;;15.38;83.97
22047;BME280;11187;49.412;20.956;2023-10-31T12:05:09;93759.81;;;15.37;84.36
22047;BME280;11187;49.412;20.956;2023-10-31T12:07:44;93757.97;;;15.39;84.40
22047;BME280;11187;49.412;20.956;2023-10-31T12:10:38;93769.88;;;15.42;84.18
22047;BME280;11187;49.412;20.956;2023-10-31T12:13:33;93763.78;;;15.43;84.31
22047;BME280;11187;49.412;20.956;2023-10-31T12:16:08;93765.44;;;15.44;84.65
22047;BME280;11187;49.412;20.956;2023-10-31T12:19:03;93757.81;;;15.42;83.16
22047;BME280;11187;49.412;20.956;2023-10-31T12:21:58;93750.69;;;15.46;84.54
22047;BME280;11187;49.412;20.956;2023-10-31T12:25:00;93750.63;;;15.48;84.35
22047;BME280;11187;49.412;20.956;2023-10-31T12:27:50;93736.78;;;15.49;84.29
22047;BME280;11187;49.412;20.956;2023-10-31T12:30:45;93724.75;;;15.49;83.89
22047;BME280;11187;49.412;20.956;2023-10-31T12:33:43;93712.75;;;15.48;84.31
22047;BME280;11187;49.412;20.956;2023-10-31T12:36:40;93721.44;;;15.47;84.36
22047;BME280;11187;49.412;20.956;2023-10-31T12:39:22;93714.44;;;15.49;83.35
22047;BME280;11187;49.412;20.956;2023-10-31T12:42:03;93710.09;;;15.50;83.28
22047;BME280;11187;49.412;20.956;2023-10-31T12:44:43;93702.97;;;15.53;83.46
22047;BME280;11187;49.412;20.956;2023-10-31T12:47:25;93716.72;;;15.54;83.61
22047;BME280;11187;49.412;20.956;2023-10-31T12:50:19;93702.81;;;15.56;84.12
22047;BME280;11187;49.412;20.956;2023-10-31T12:52:59;93711.28;;;15.58;84.68
22047;BME280;11187;49.412;20.956;2023-10-31T12:55:41;93716.34;;;15.60;84.84
22047;BME280;11187;49.412;20.956;2023-10-31T12:58:21;93704.19;;;15.62;85.32
22047;BME280;11187;49.412;20.956;2023-10-31T13:01:01;93705.84;;;15.63;85.49
22047;BME280;11187;49.412;20.956;2023-10-31T13:03:50;93706.69;;;15.63;85.58
22047;BME280;11187;49.412;20.956;2023-10-31T13:06:31;93703.00;;;15.68;85.94
22047;BME280;11187;49.412;20.956;2023-10-31T13:09:11;93684.00;;;15.69;85.33
22047;BME280;11187;49.412;20.956;2023-10-31T13:11:52;93685.59;;;15.71;85.30
22047;BME280;11187;49.412;20.956;2023-10-31T13:14:32;93674.16;;;15.75;85.49
22047;BME280;11187;49.412;20.956;2023-10-31T13:17:20;93669.13;;;15.74;84.82
22047;BME280;11187;49.412;20.956;2023-10-31T13:19:53;93690.59;;;15.74;84.47
22047;BME280;11187;49.412;20.956;2023-10-31T13:22:41;93688.91;;;15.73;84.39
22047;BME280;11187;49.412;20.956;2023-10-31T13:25:15;93694.19;;;15.72;85.72
22047;BME280;11187;49.412;20.956;2023-10-31T13:28:02;93691.84;;;15.67;86.19
22047;BME280;11187;49.412;20.956;2023-10-31T13:30:37;93690.28;;;15.64;86.37
22047;BME280;11187;49.412;20.956;2023-10-31T13:33:26;93673.34;;;15.60;86.12
22047;BME280;11187;49.412;20.956;2023-10-31T13:36:06;93663.09;;;15.59;87.17
22047;BME280;11187;49.412;20.956;2023-10-31T13:38:53;93661.72;;;15.53;86.27
22047;BME280;11187;49.412;20.956;2023-10-31T13:41:33;93654.09;;;15.52;86.36
22047;BME280;11187;49.412;20.956;2023-10-31T13:44:20;93651.59;;;15.50;87.27
22047;BME280;11187;49.412;20.956;2023-10-31T13:46:53;93655.28;;;15.46;87.36
22047;BME280;11187;49.412;20.956;2023-10-31T13:49:41;93663.28;;;15.41;87.45
22047;BME280;11187;49.412;20.956;2023-10-31T13:52:14;93652.34;;;15.38;87.20
22047;BME280;11187;49.412;20.956;2023-10-31T13:55:02;93653.38;;;15.35;87.64
22047;BME280;11187;49.412;20.956;2023-10-31T13:57:35;93646.63;;;15.33;87.79
22047;BME280;11187;49.412;20.956;2023-10-31T14:00:22;93651.88;;;15.31;87.65
22047;BME280;11187;49.412;20.956;2023-10-31T14:02:55;93653.00;;;15.27;87.78
22047;BME280;11187;49.412;20.956;2023-10-31T14:05:42;93642.88;;;15.24;87.49
22047;BME280;11187;49.412;20.956;2023-10-31T14:08:15;93682.44;;;15.23;89.19
22047;BME280;11187;49.412;20.956;2023-10-31T14:11:02;93754.81;;;15.20;89.87
22047;BME280;11187;49.412;20.956;2023-10-31T14:13:36;93801.56;;;15.14;92.86
22047;BME280;11187;49.412;20.956;2023-10-31T14:16:24;93794.81;;;14.97;95.99